createdAt,value
2019-01-23T00:01:53.455Z,-2.00
2019-01-23T00:04:24.415Z,-2.00
2019-01-23T00:06:55.481Z,-2.00
2019-01-23T00:09:26.376Z,-1.90
2019-01-23T00:11:57.273Z,-2.00
2019-01-23T00:14:28.279Z,-2.00
2019-01-23T00:16:59.259Z,-2.00
2019-01-23T00:19:30.120Z,-2.00
2019-01-23T00:22:00.995Z,-2.00
2019-01-23T00:24:31.892Z,-2.00
2019-01-23T00:27:02.894Z,-2.00
2019-01-23T00:29:33.922Z,-2.10
2019-01-23T00:32:06.050Z,-2.10
2019-01-23T00:34:37.242Z,-2.10
2019-01-23T00:37:08.866Z,-2.10
2019-01-23T00:39:40.038Z,-2.00
2019-01-23T00:42:11.170Z,-2.00
2019-01-23T00:44:42.272Z,-2.10
2019-01-23T00:47:13.366Z,-2.10
2019-01-23T00:49:44.344Z,-2.20
2019-01-23T00:52:15.715Z,-2.20
2019-01-23T00:54:46.769Z,-2.30
2019-01-23T00:57:17.965Z,-2.40
2019-01-23T00:59:48.982Z,-2.30
2019-01-23T01:02:20.166Z,-2.30
2019-01-23T01:04:51.432Z,-2.40
2019-01-23T01:07:23.156Z,-2.30
2019-01-23T01:09:54.428Z,-2.40
2019-01-23T01:12:27.013Z,-2.40
2019-01-23T01:14:57.891Z,-2.50
2019-01-23T01:17:28.974Z,-2.40
2019-01-23T01:20:00.090Z,-2.40
2019-01-23T01:22:31.317Z,-2.50
2019-01-23T01:25:02.292Z,-2.60
2019-01-23T01:27:33.326Z,-2.60
2019-01-23T01:30:06.522Z,-2.60
2019-01-23T01:32:37.448Z,-2.60
2019-01-23T01:35:08.704Z,-2.60
2019-01-23T01:37:42.707Z,-2.60
2019-01-23T01:40:15.732Z,-2.50
2019-01-23T01:42:46.892Z,-2.50
2019-01-23T01:45:19.674Z,-2.60
2019-01-23T01:47:50.825Z,-2.60
2019-01-23T01:50:22.434Z,-2.70
2019-01-23T01:52:53.534Z,-2.70
2019-01-23T01:55:24.458Z,-2.70
2019-01-23T01:58:00.311Z,-2.80
2019-01-23T02:00:31.408Z,-2.80
2019-01-23T02:03:02.475Z,-2.80
2019-01-23T02:05:33.548Z,-2.80
2019-01-23T02:08:04.558Z,-2.80
2019-01-23T02:10:35.629Z,-2.80
2019-01-23T02:13:06.570Z,-2.70
2019-01-23T02:15:37.680Z,-2.80
2019-01-23T02:18:08.884Z,-2.90
2019-01-23T02:20:40.138Z,-2.80
2019-01-23T02:23:11.124Z,-2.70
2019-01-23T02:25:42.212Z,-2.50
2019-01-23T02:28:13.167Z,-2.70
2019-01-23T02:30:44.028Z,-2.70
2019-01-23T02:33:15.031Z,-2.80
2019-01-23T02:35:46.006Z,-2.80
2019-01-23T02:38:16.921Z,-2.80
2019-01-23T02:40:47.815Z,-2.70
2019-01-23T02:43:18.738Z,-2.70
2019-01-23T02:45:49.777Z,-2.80
2019-01-23T02:48:29.724Z,-2.70
2019-01-23T02:51:00.626Z,-2.70
2019-01-23T02:53:31.787Z,-2.70
2019-01-23T02:56:02.750Z,-2.80
2019-01-23T02:58:33.809Z,-2.80
2019-01-23T03:01:04.959Z,-2.80
2019-01-23T03:03:35.991Z,-2.80
2019-01-23T03:06:07.134Z,-2.90
2019-01-23T03:08:38.233Z,-3.00
2019-01-23T03:11:09.160Z,-3.10
2019-01-23T03:13:40.228Z,-3.00
2019-01-23T03:16:11.266Z,-3.20
2019-01-23T03:18:42.247Z,-3.20
2019-01-23T03:21:25.174Z,-3.10
2019-01-23T03:23:56.154Z,-3.00
2019-01-23T03:26:27.008Z,-3.10
2019-01-23T03:28:57.920Z,-3.10
2019-01-23T03:31:28.811Z,-3.20
2019-01-23T03:33:59.758Z,-3.20
2019-01-23T03:36:30.776Z,-3.30
2019-01-23T03:39:01.773Z,-3.40
2019-01-23T03:41:34.315Z,-3.40
2019-01-23T03:44:05.500Z,-3.30
2019-01-23T03:46:36.475Z,-3.20
2019-01-23T03:49:07.480Z,-3.20
2019-01-23T03:51:38.391Z,-3.30
2019-01-23T03:54:09.318Z,-3.30
2019-01-23T03:56:40.493Z,-3.50
2019-01-23T03:59:11.949Z,-3.50
2019-01-23T04:01:42.995Z,-3.50
2019-01-23T04:04:14.267Z,-3.50
2019-01-23T04:06:45.280Z,-3.60
2019-01-23T04:09:16.457Z,-3.50
2019-01-23T04:11:47.388Z,-3.50
2019-01-23T04:14:18.352Z,-3.50
2019-01-23T04:16:49.470Z,-3.50
2019-01-23T04:19:20.714Z,-3.50
2019-01-23T04:21:51.698Z,-3.50
2019-01-23T04:24:22.777Z,-3.50
2019-01-23T04:26:53.652Z,-3.50
2019-01-23T04:29:24.589Z,-3.50
2019-01-23T04:31:55.458Z,-3.60
2019-01-23T04:34:26.367Z,-3.50
2019-01-23T04:36:58.144Z,-3.50
2019-01-23T04:39:29.136Z,-3.60
2019-01-23T04:42:00.088Z,-3.40
2019-01-23T04:44:31.122Z,-3.50
2019-01-23T04:47:02.038Z,-3.60
2019-01-23T04:49:32.923Z,-3.70
2019-01-23T04:52:10.051Z,-3.70
2019-01-23T04:54:40.903Z,-3.70
2019-01-23T04:57:11.894Z,-3.60
2019-01-23T04:59:47.025Z,-3.70
2019-01-23T05:02:15.579Z,-3.70
2019-01-23T05:04:46.547Z,-3.70
2019-01-23T05:07:17.831Z,-3.80
2019-01-23T05:09:48.810Z,-3.60
2019-01-23T05:12:19.671Z,-3.60
2019-01-23T05:14:50.606Z,-3.60
2019-01-23T05:17:21.526Z,-3.70
2019-01-23T05:19:52.519Z,-3.70
2019-01-23T05:22:23.621Z,-3.70
2019-01-23T05:24:54.671Z,-3.70
2019-01-23T05:27:25.764Z,-3.60
2019-01-23T05:29:57.373Z,-3.70
2019-01-23T05:32:28.586Z,-3.70
2019-01-23T05:34:59.677Z,-3.70
2019-01-23T05:37:30.817Z,-3.70
2019-01-23T05:40:01.943Z,-3.80
2019-01-23T05:42:34.127Z,-3.80
2019-01-23T05:45:06.171Z,-3.70
2019-01-23T05:47:37.290Z,-3.70
2019-01-23T05:50:13.953Z,-3.80
2019-01-23T05:52:44.795Z,-3.80
2019-01-23T05:55:16.008Z,-3.90
2019-01-23T05:57:46.997Z,-3.80
2019-01-23T06:00:20.639Z,-3.80
2019-01-23T06:02:51.673Z,-3.90
2019-01-23T06:05:23.124Z,-3.90
2019-01-23T06:07:54.168Z,-4.00
2019-01-23T06:10:25.316Z,-4.00
2019-01-23T06:12:56.317Z,-4.00
2019-01-23T06:15:27.285Z,-4.10
2019-01-23T06:17:58.184Z,-4.00
2019-01-23T06:20:29.047Z,-4.10
2019-01-23T06:23:00.024Z,-4.10
2019-01-23T06:25:30.988Z,-4.10
2019-01-23T06:28:01.890Z,-4.00
2019-01-23T06:30:32.852Z,-4.00
2019-01-23T06:33:03.914Z,-4.00
2019-01-23T06:35:35.047Z,-3.90
2019-01-23T06:38:06.074Z,-4.00
2019-01-23T06:40:37.182Z,-4.00
2019-01-23T06:43:08.479Z,-4.00
2019-01-23T06:45:39.681Z,-4.00
2019-01-23T06:48:13.731Z,-4.00
2019-01-23T06:50:44.698Z,-3.80
2019-01-23T06:53:15.678Z,-3.80
2019-01-23T06:55:49.811Z,-3.80
2019-01-23T06:58:21.646Z,-3.80
2019-01-23T07:00:52.756Z,-3.90
2019-01-23T07:03:23.935Z,-3.90
2019-01-23T07:05:54.937Z,-4.10
2019-01-23T07:08:25.840Z,-4.20
2019-01-23T07:10:56.810Z,-4.30
2019-01-23T07:13:28.781Z,-4.30
2019-01-23T07:15:59.861Z,-4.30
2019-01-23T07:18:30.828Z,-4.40
2019-01-23T07:21:01.794Z,-4.30
2019-01-23T07:23:32.706Z,-4.20
2019-01-23T07:26:03.707Z,-4.30
2019-01-23T07:28:34.719Z,-4.30
2019-01-23T07:31:05.776Z,-4.30
2019-01-23T07:33:36.668Z,-4.40
2019-01-23T07:36:07.646Z,-4.40
2019-01-23T07:38:38.759Z,-4.40
2019-01-23T07:41:09.786Z,-4.20
2019-01-23T07:43:45.094Z,-4.10
2019-01-23T07:46:18.275Z,-3.90
2019-01-23T07:48:49.634Z,-3.90
2019-01-23T07:51:21.130Z,-3.80
2019-01-23T07:53:52.215Z,-3.80
2019-01-23T07:56:23.373Z,-4.10
2019-01-23T07:58:54.392Z,-4.00
2019-01-23T08:01:25.758Z,-3.90
2019-01-23T08:03:57.036Z,-3.80
2019-01-23T08:06:28.324Z,-3.90
2019-01-23T08:09:00.410Z,-3.90
2019-01-23T08:11:32.174Z,-3.80
2019-01-23T08:14:03.267Z,-3.70
2019-01-23T08:16:34.507Z,-3.70
2019-01-23T08:19:05.611Z,-3.70
2019-01-23T08:21:37.575Z,-3.60
2019-01-23T08:24:09.510Z,-3.50
2019-01-23T08:26:40.677Z,-3.60
2019-01-23T08:29:11.806Z,-3.50
2019-01-23T08:31:42.817Z,-3.50
2019-01-23T08:34:13.820Z,-3.50
2019-01-23T08:36:44.705Z,-3.50
2019-01-23T08:39:15.837Z,-3.60
2019-01-23T08:41:46.881Z,-3.60
2019-01-23T08:44:17.809Z,-3.70
2019-01-23T08:46:48.732Z,-3.70
2019-01-23T08:49:19.612Z,-3.60
2019-01-23T08:51:50.591Z,-3.60
2019-01-23T08:54:21.507Z,-3.60
2019-01-23T08:56:52.621Z,-3.60
2019-01-23T08:59:23.583Z,-3.50
2019-01-23T09:01:54.567Z,-3.60
2019-01-23T09:04:25.531Z,-3.50
2019-01-23T09:06:56.565Z,-3.50
2019-01-23T09:09:28.336Z,-3.30
2019-01-23T09:11:59.541Z,-3.40
2019-01-23T09:14:32.771Z,-3.30
2019-01-23T09:17:04.155Z,-3.10
2019-01-23T09:19:35.267Z,-3.10
2019-01-23T09:22:06.515Z,-3.10
2019-01-23T09:24:37.563Z,-3.00
2019-01-23T09:27:08.639Z,-2.70
2019-01-23T09:29:41.146Z,-2.80
2019-01-23T09:33:10.841Z,-2.90
2019-01-23T09:36:00.710Z,-2.70
2019-01-23T09:39:32.628Z,-2.70
2019-01-23T09:42:47.747Z,-2.60
2019-01-23T09:46:08.373Z,-2.80
2019-01-23T09:49:29.968Z,-2.80
2019-01-23T09:52:59.342Z,-2.70
2019-01-23T09:55:30.261Z,-2.70
2019-01-23T09:58:06.455Z,-2.60
2019-01-23T10:00:37.597Z,-2.40
2019-01-23T10:03:09.053Z,-2.50
2019-01-23T10:05:40.499Z,-2.40
2019-01-23T10:08:12.653Z,-2.50
2019-01-23T10:10:43.849Z,-2.60
2019-01-23T10:13:15.409Z,-2.70
2019-01-23T10:16:14.143Z,-2.60
2019-01-23T10:18:48.489Z,-2.50
2019-01-23T10:21:19.797Z,-2.20
2019-01-23T10:23:51.005Z,-2.20
2019-01-23T10:26:22.145Z,-2.20
2019-01-23T10:28:53.063Z,-2.00
2019-01-23T10:31:24.367Z,-2.10
2019-01-23T10:33:55.366Z,-2.10
2019-01-23T10:36:26.479Z,-1.90
2019-01-23T10:38:57.476Z,-2.00
2019-01-23T10:41:28.424Z,-2.10
2019-01-23T10:43:59.900Z,-2.00
2019-01-23T10:46:31.062Z,-2.10
2019-01-23T10:49:01.986Z,-2.10
2019-01-23T10:51:33.041Z,-2.20
2019-01-23T10:54:04.098Z,-2.40
2019-01-23T10:56:35.217Z,-2.50
2019-01-23T10:59:06.163Z,-2.40
2019-01-23T11:01:37.273Z,-2.40
2019-01-23T11:04:08.387Z,-2.40
2019-01-23T11:06:39.367Z,-2.20
2019-01-23T11:09:10.636Z,-2.20
2019-01-23T11:11:41.920Z,-2.20
2019-01-23T11:14:12.957Z,-1.90
2019-01-23T11:16:43.995Z,-1.90
2019-01-23T11:19:14.935Z,-1.70
2019-01-23T11:21:46.874Z,-1.80
2019-01-23T11:24:17.750Z,-2.00
2019-01-23T11:26:50.060Z,-2.20
2019-01-23T11:29:20.978Z,-2.20
2019-01-23T11:31:52.611Z,-2.00
2019-01-23T11:34:23.647Z,-2.10
2019-01-23T11:36:57.510Z,-2.00
2019-01-23T11:39:29.016Z,-2.00
2019-01-23T11:42:02.318Z,-1.90
2019-01-23T11:44:33.392Z,-1.80
2019-01-23T11:47:05.751Z,-1.80
2019-01-23T11:49:36.620Z,-1.80
2019-01-23T11:52:07.883Z,-1.90
2019-01-23T11:54:38.964Z,-2.00
2019-01-23T11:57:10.113Z,-2.00
2019-01-23T11:59:40.983Z,-1.80
2019-01-23T12:02:12.125Z,-1.60
2019-01-23T12:04:44.133Z,-1.70
2019-01-23T12:07:16.767Z,-1.60
2019-01-23T12:09:47.718Z,-1.60
2019-01-23T12:12:18.775Z,-1.70
2019-01-23T12:14:49.919Z,-1.60
2019-01-23T12:17:20.905Z,-1.50
2019-01-23T12:19:52.999Z,-1.50
2019-01-23T12:22:24.126Z,-1.60
2019-01-23T12:24:55.263Z,-1.60
2019-01-23T12:27:26.226Z,-1.60
2019-01-23T12:29:57.350Z,-1.60
2019-01-23T12:32:28.736Z,-1.50
2019-01-23T12:35:02.211Z,-1.70
2019-01-23T12:37:33.623Z,-1.70
2019-01-23T12:40:06.294Z,-1.90
2019-01-23T12:42:37.679Z,-2.10
2019-01-23T12:45:14.347Z,-2.10
2019-01-23T12:47:47.167Z,-2.00
2019-01-23T12:50:24.298Z,-1.90
2019-01-23T12:53:04.620Z,-2.00
2019-01-23T12:55:36.091Z,-2.00
2019-01-23T12:58:08.933Z,-1.90
2019-01-23T13:00:40.760Z,-1.90
2019-01-23T13:03:12.153Z,-2.10
2019-01-23T13:05:43.702Z,-2.10
2019-01-23T13:08:14.940Z,-2.00
2019-01-23T13:10:46.185Z,-2.10
2019-01-23T13:13:19.198Z,-2.00
2019-01-23T13:15:50.403Z,-2.10
2019-01-23T13:18:21.641Z,-2.40
2019-01-23T13:20:52.702Z,-2.60
2019-01-23T13:23:23.621Z,-2.60
2019-01-23T13:25:54.725Z,-2.40
2019-01-23T13:28:25.838Z,-2.30
2019-01-23T13:30:56.989Z,-2.30
2019-01-23T13:33:30.859Z,-2.20
2019-01-23T13:36:05.144Z,-2.00
2019-01-23T13:38:44.232Z,-2.10
2019-01-23T13:41:17.033Z,-2.20
2019-01-23T13:43:49.594Z,-2.20
2019-01-23T13:46:20.641Z,-2.10
2019-01-23T13:48:51.811Z,-2.20
2019-01-23T13:51:25.762Z,-2.20
2019-01-23T13:53:56.862Z,-2.20
2019-01-23T13:56:27.857Z,-2.30
2019-01-23T13:59:01.221Z,-2.20
2019-01-23T14:01:34.241Z,-2.00
2019-01-23T14:04:07.010Z,-1.90
2019-01-23T14:06:38.181Z,-1.90
2019-01-23T14:09:09.456Z,-2.10
2019-01-23T14:11:40.670Z,-2.00
2019-01-23T14:14:11.948Z,-1.90
2019-01-23T14:16:43.038Z,-1.90
2019-01-23T14:19:13.945Z,-2.10
2019-01-23T14:21:45.097Z,-2.20
2019-01-23T14:24:16.101Z,-2.30
2019-01-23T14:26:47.062Z,-2.40
2019-01-23T14:29:19.599Z,-2.30
2019-01-23T14:31:50.606Z,-2.30
2019-01-23T14:34:21.680Z,-2.30
2019-01-23T14:36:53.751Z,-2.30
2019-01-23T14:39:24.879Z,-2.10
2019-01-23T14:41:59.114Z,-2.00
2019-01-23T14:44:30.284Z,-2.00
2019-01-23T14:47:01.399Z,-1.90
2019-01-23T14:49:32.732Z,-2.10
2019-01-23T14:52:04.080Z,-2.10
2019-01-23T14:54:35.386Z,-2.20
2019-01-23T14:57:06.453Z,-2.30
2019-01-23T14:59:37.500Z,-2.30
2019-01-23T15:02:10.393Z,-2.30
2019-01-23T15:04:41.703Z,-2.30
2019-01-23T15:07:12.750Z,-2.30
2019-01-23T15:09:55.695Z,-2.40
2019-01-23T15:12:26.749Z,-2.40
2019-01-23T15:14:57.826Z,-2.50
2019-01-23T15:17:30.247Z,-2.60
2019-01-23T15:20:02.232Z,-2.70
2019-01-23T15:22:37.503Z,-2.70
2019-01-23T15:25:09.787Z,-2.80
2019-01-23T15:27:40.755Z,-2.80
2019-01-23T15:30:14.377Z,-2.70
2019-01-23T15:32:45.288Z,-2.80
2019-01-23T15:35:17.047Z,-2.90
2019-01-23T15:37:49.828Z,-2.90
2019-01-23T15:40:25.191Z,-3.00
2019-01-23T15:42:56.287Z,-2.90
2019-01-23T15:45:28.308Z,-2.90
2019-01-23T15:47:59.322Z,-2.90
2019-01-23T15:50:30.508Z,-3.00
2019-01-23T15:53:01.793Z,-3.00
2019-01-23T15:55:33.432Z,-3.00
2019-01-23T15:58:05.195Z,-3.00
2019-01-23T16:00:36.611Z,-3.10
2019-01-23T16:03:09.557Z,-3.10
2019-01-23T16:05:41.510Z,-3.20
2019-01-23T16:08:13.139Z,-3.20
2019-01-23T16:10:44.563Z,-3.10
2019-01-23T16:13:16.554Z,-3.10
2019-01-23T16:15:47.867Z,-3.10
2019-01-23T16:18:18.988Z,-3.20
2019-01-23T16:20:50.554Z,-3.30
2019-01-23T16:23:22.069Z,-3.30
2019-01-23T16:25:53.321Z,-3.40
2019-01-23T16:28:24.328Z,-3.40
2019-01-23T16:30:56.028Z,-3.40
2019-01-23T16:33:28.283Z,-3.40
2019-01-23T16:35:59.375Z,-3.50
2019-01-23T16:38:30.395Z,-3.60
2019-01-23T16:41:01.868Z,-3.50
2019-01-23T16:43:32.955Z,-3.60
2019-01-23T16:46:04.575Z,-3.60
2019-01-23T16:48:36.173Z,-3.50
2019-01-23T16:51:07.316Z,-3.50
2019-01-23T16:53:38.312Z,-3.40
2019-01-23T16:56:09.779Z,-3.40
2019-01-23T16:58:40.903Z,-3.50
2019-01-23T17:01:12.223Z,-3.60
2019-01-23T17:03:43.611Z,-3.60
2019-01-23T17:06:14.800Z,-3.50
2019-01-23T17:08:48.741Z,-3.60
2019-01-23T17:11:21.685Z,-3.50
2019-01-23T17:13:52.855Z,-3.50
2019-01-23T17:16:24.194Z,-3.50
2019-01-23T17:18:55.581Z,-3.50
2019-01-23T17:21:29.379Z,-3.50
2019-01-23T17:24:00.444Z,-3.60
2019-01-23T17:26:31.594Z,-3.50
2019-01-23T17:29:02.716Z,-3.40
2019-01-23T17:31:33.772Z,-3.30
2019-01-23T17:34:04.915Z,-3.50
2019-01-23T17:36:38.712Z,-3.60
2019-01-23T17:39:11.199Z,-3.70
2019-01-23T17:41:42.331Z,-3.50
2019-01-23T17:44:13.515Z,-3.60
2019-01-23T17:46:44.816Z,-3.70
2019-01-23T17:49:18.305Z,-3.70
2019-01-23T17:51:49.761Z,-3.50
2019-01-23T17:54:20.935Z,-3.60
2019-01-23T17:56:54.849Z,-3.60
2019-01-23T17:59:28.561Z,-3.60
2019-01-23T18:02:00.808Z,-3.60
2019-01-23T18:04:32.376Z,-3.50
2019-01-23T18:07:03.760Z,-3.60
2019-01-23T18:09:35.042Z,-3.50
2019-01-23T18:12:07.165Z,-3.50
2019-01-23T18:14:38.187Z,-3.50
2019-01-23T18:17:09.191Z,-3.40
2019-01-23T18:19:40.100Z,-3.30
2019-01-23T18:22:11.108Z,-3.40
2019-01-23T18:24:42.468Z,-3.50
2019-01-23T18:27:15.379Z,-3.50
2019-01-23T18:29:47.157Z,-3.50
2019-01-23T18:32:18.178Z,-3.60
2019-01-23T18:36:20.950Z,-3.60
2019-01-23T18:39:09.350Z,-3.60
2019-01-23T18:42:08.868Z,-3.70
2019-01-23T18:45:38.343Z,-3.70
2019-01-23T18:49:10.386Z,-3.80
2019-01-23T18:51:52.344Z,-3.70
2019-01-23T18:54:23.672Z,-3.70
2019-01-23T18:56:54.686Z,-3.70
2019-01-23T18:59:25.740Z,-3.70
2019-01-23T19:01:56.915Z,-3.90
2019-01-23T19:04:27.835Z,-4.00
2019-01-23T19:07:00.060Z,-4.00
2019-01-23T19:09:31.046Z,-4.00
2019-01-23T19:12:01.968Z,-4.10
2019-01-23T19:14:33.028Z,-4.10
2019-01-23T19:17:04.632Z,-4.20
2019-01-23T19:19:36.728Z,-4.20
2019-01-23T19:22:07.986Z,-4.20
2019-01-23T19:24:39.578Z,-4.20
2019-01-23T19:27:11.035Z,-4.20
2019-01-23T19:29:43.054Z,-4.30
2019-01-23T19:34:48.019Z,-4.30
2019-01-23T19:37:19.162Z,-4.30
2019-01-23T19:39:50.325Z,-4.30
2019-01-23T19:42:21.613Z,-4.30
2019-01-23T19:44:52.585Z,-4.30
2019-01-23T19:47:23.675Z,-4.30
2019-01-23T19:49:56.666Z,-4.30
2019-01-23T19:52:27.689Z,-4.30
2019-01-23T19:54:58.639Z,-4.30
2019-01-23T19:57:31.229Z,-4.30
2019-01-23T20:00:02.250Z,-4.40
2019-01-23T20:02:33.528Z,-4.40
2019-01-23T20:05:05.281Z,-4.40
2019-01-23T20:07:36.353Z,-4.40
2019-01-23T20:10:14.410Z,-4.40
2019-01-23T20:12:44.368Z,-4.40
2019-01-23T20:15:17.643Z,-4.30
2019-01-23T20:17:49.403Z,-4.60
2019-01-23T20:20:20.806Z,-4.60
2019-01-23T20:22:52.082Z,-4.70
2019-01-23T20:25:25.356Z,-4.70
2019-01-23T20:27:56.715Z,-4.70
2019-01-23T20:30:37.699Z,-4.60
2019-01-23T20:33:08.755Z,-4.50
2019-01-23T20:35:39.907Z,-4.50
2019-01-23T20:38:10.922Z,-4.50
2019-01-23T20:40:42.355Z,-4.40
2019-01-23T20:43:13.453Z,-4.50
2019-01-23T20:45:44.701Z,-4.60
2019-01-23T20:48:15.666Z,-4.70
2019-01-23T20:51:06.201Z,-4.70
2019-01-23T20:53:37.289Z,-4.50
2019-01-23T20:56:08.534Z,-4.40
2019-01-23T20:58:40.549Z,-4.50
2019-01-23T21:01:11.605Z,-4.70
2019-01-23T21:03:42.681Z,-4.50
2019-01-23T21:06:14.070Z,-4.70
2019-01-23T21:08:45.435Z,-4.70
2019-01-23T21:11:16.425Z,-4.80
2019-01-23T21:13:47.444Z,-4.90
2019-01-23T21:16:18.647Z,-4.90
2019-01-23T21:18:49.750Z,-4.90
2019-01-23T21:21:20.801Z,-5.00
2019-01-23T21:23:51.735Z,-5.00
2019-01-23T21:26:22.796Z,-5.00
2019-01-23T21:28:54.869Z,-4.90
2019-01-23T21:31:25.957Z,-4.90
2019-01-23T21:33:56.915Z,-4.80
2019-01-23T21:36:29.352Z,-4.70
2019-01-23T21:39:00.394Z,-4.80
2019-01-23T21:41:33.175Z,-4.60
2019-01-23T21:44:04.682Z,-4.60
2019-01-23T21:46:36.123Z,-4.20
2019-01-23T21:49:07.726Z,-4.30
2019-01-23T21:51:38.886Z,-4.30
2019-01-23T21:54:18.149Z,-4.10
2019-01-23T21:56:49.187Z,-4.00
2019-01-23T21:59:20.149Z,-4.00
2019-01-23T22:01:51.088Z,-4.00
2019-01-23T22:04:22.064Z,-3.90
2019-01-23T22:06:53.022Z,-4.00
2019-01-23T22:09:23.973Z,-4.00
2019-01-23T22:11:55.077Z,-4.00
2019-01-23T22:14:26.068Z,-3.90
2019-01-23T22:16:57.053Z,-4.00
2019-01-23T22:19:28.020Z,-4.00
2019-01-23T22:21:58.929Z,-4.10
2019-01-23T22:24:29.929Z,-4.10
2019-01-23T22:27:07.251Z,-4.20
2019-01-23T22:29:41.383Z,-4.30
2019-01-23T22:32:12.830Z,-4.40
2019-01-23T22:34:44.107Z,-4.40
2019-01-23T22:37:15.409Z,-4.50
2019-01-23T22:39:46.997Z,-4.50
2019-01-23T22:42:18.111Z,-4.50
2019-01-23T22:44:50.099Z,-4.40
2019-01-23T22:47:21.432Z,-4.40
2019-01-23T22:49:52.453Z,-4.40
2019-01-23T22:52:23.518Z,-4.30
2019-01-23T22:54:54.450Z,-4.40
2019-01-23T22:57:25.548Z,-4.50
2019-01-23T22:59:56.530Z,-4.50
2019-01-23T23:02:28.042Z,-4.50
2019-01-23T23:04:58.936Z,-4.80
2019-01-23T23:07:30.398Z,-4.70
2019-01-23T23:10:01.643Z,-4.70
2019-01-23T23:12:32.650Z,-4.70
2019-01-23T23:15:03.819Z,-4.80
2019-01-23T23:17:34.930Z,-4.70
2019-01-23T23:20:06.951Z,-4.70
2019-01-23T23:22:37.961Z,-4.70
2019-01-23T23:25:10.482Z,-4.60
2019-01-23T23:27:41.416Z,-4.60
2019-01-23T23:30:14.160Z,-4.50
2019-01-23T23:32:45.404Z,-4.60
2019-01-23T23:35:16.551Z,-4.50
2019-01-23T23:37:48.234Z,-4.60
2019-01-23T23:40:19.482Z,-4.70
2019-01-23T23:42:50.748Z,-4.60
2019-01-23T23:45:22.505Z,-4.60
2019-01-23T23:47:53.852Z,-4.60
2019-01-23T23:50:25.126Z,-4.60
2019-01-23T23:52:57.447Z,-4.50
2019-01-23T23:55:28.486Z,-4.70
2019-01-23T23:57:59.971Z,-4.60
